sensor_id;sensor_type;location;lat;lon;timestamp;temperature;humidity
8152;DHT22;4117;53.622;9.958;2023-07-31T00:01:55;14.30;79.80
8152;DHT22;4117;53.622;9.958;2023-07-31T00:04:22;14.30;81.40
8152;DHT22;4117;53.622;9.958;2023-07-31T00:06:48;14.30;87.00
8152;DHT22;4117;53.622;9.958;2023-07-31T00:09:17;14.30;90.90
8152;DHT22;4117;53.622;9.958;2023-07-31T00:11:43;14.30;91.20
8152;DHT22;4117;53.622;9.958;2023-07-31T00:14:10;14.30;91.20
8152;DHT22;4117;53.622;9.958;2023-07-31T00:16:37;14.30;91.20
8152;DHT22;4117;53.622;9.958;2023-07-31T00:19:04;14.20;93.60
8152;DHT22;4117;53.622;9.958;2023-07-31T00:21:31;14.20;96.70
8152;DHT22;4117;53.622;9.958;2023-07-31T00:23:58;14.20;99.60
8152;DHT22;4117;53.622;9.958;2023-07-31T00:26:26;14.20;99.90
8152;DHT22;4117;53.622;9.958;2023-07-31T00:28:53;14.20;99.90
8152;DHT22;4117;53.622;9.958;2023-07-31T00:31:20;14.20;99.90
8152;DHT22;4117;53.622;9.958;2023-07-31T00:33:47;14.30;99.90
8152;DHT22;4117;53.622;9.958;2023-07-31T00:36:14;14.30;99.90
8152;DHT22;4117;53.622;9.958;2023-07-31T00:38:40;14.30;99.90
8152;DHT22;4117;53.622;9.958;2023-07-31T00:41:07;14.30;99.90
8152;DHT22;4117;53.622;9.958;2023-07-31T00:43:36;14.30;99.90
8152;DHT22;4117;53.622;9.958;2023-07-31T00:46:02;14.30;99.90
8152;DHT22;4117;53.622;9.958;2023-07-31T00:48:31;14.30;99.90
8152;DHT22;4117;53.622;9.958;2023-07-31T00:50:58;14.20;99.90
8152;DHT22;4117;53.622;9.958;2023-07-31T00:53:27;14.20;99.90
8152;DHT22;4117;53.622;9.958;2023-07-31T00:55:54;14.20;99.90
8152;DHT22;4117;53.622;9.958;2023-07-31T00:58:21;14.20;99.90
8152;DHT22;4117;53.622;9.958;2023-07-31T01:00:49;14.20;99.90
8152;DHT22;4117;53.622;9.958;2023-07-31T01:03:17;14.10;99.90
8152;DHT22;4117;53.622;9.958;2023-07-31T01:05:54;14.10;99.90
8152;DHT22;4117;53.622;9.958;2023-07-31T01:08:32;14.10;99.90
8152;DHT22;4117;53.622;9.958;2023-07-31T01:11:04;14.10;99.90
8152;DHT22;4117;53.622;9.958;2023-07-31T01:13:34;14.10;99.90
8152;DHT22;4117;53.622;9.958;2023-07-31T01:16:03;14.10;99.90
8152;DHT22;4117;53.622;9.958;2023-07-31T01:18:30;14.10;99.90
8152;DHT22;4117;53.622;9.958;2023-07-31T01:21:03;14.10;99.90
8152;DHT22;4117;53.622;9.958;2023-07-31T01:23:51;14.00;99.90
8152;DHT22;4117;53.622;9.958;2023-07-31T01:26:30;14.00;99.90
8152;DHT22;4117;53.622;9.958;2023-07-31T01:29:03;14.00;99.90
8152;DHT22;4117;53.622;9.958;2023-07-31T01:31:33;14.10;99.90
8152;DHT22;4117;53.622;9.958;2023-07-31T01:34:01;14.00;99.90
8152;DHT22;4117;53.622;9.958;2023-07-31T01:36:28;14.00;99.90
8152;DHT22;4117;53.622;9.958;2023-07-31T01:38:58;14.00;99.90
8152;DHT22;4117;53.622;9.958;2023-07-31T01:41:27;14.00;99.90
8152;DHT22;4117;53.622;9.958;2023-07-31T01:43:54;14.00;99.90
8152;DHT22;4117;53.622;9.958;2023-07-31T01:46:21;14.00;99.90
8152;DHT22;4117;53.622;9.958;2023-07-31T01:48:48;14.00;99.90
8152;DHT22;4117;53.622;9.958;2023-07-31T01:51:15;14.00;99.90
8152;DHT22;4117;53.622;9.958;2023-07-31T01:53:42;14.00;99.90
8152;DHT22;4117;53.622;9.958;2023-07-31T01:56:09;14.00;99.90
8152;DHT22;4117;53.622;9.958;2023-07-31T01:58:37;14.00;99.90
8152;DHT22;4117;53.622;9.958;2023-07-31T02:01:04;14.00;99.90
8152;DHT22;4117;53.622;9.958;2023-07-31T02:03:31;14.00;99.90
8152;DHT22;4117;53.622;9.958;2023-07-31T02:05:58;14.00;99.90
8152;DHT22;4117;53.622;9.958;2023-07-31T02:08:24;14.00;99.90
8152;DHT22;4117;53.622;9.958;2023-07-31T02:10:51;14.00;99.90
8152;DHT22;4117;53.622;9.958;2023-07-31T02:13:18;14.00;99.90
8152;DHT22;4117;53.622;9.958;2023-07-31T02:15:47;14.00;99.90
8152;DHT22;4117;53.622;9.958;2023-07-31T02:18:14;14.00;99.90
8152;DHT22;4117;53.622;9.958;2023-07-31T02:20:41;14.00;99.90
8152;DHT22;4117;53.622;9.958;2023-07-31T02:23:08;14.10;99.90
8152;DHT22;4117;53.622;9.958;2023-07-31T02:25:35;14.10;99.90
8152;DHT22;4117;53.622;9.958;2023-07-31T02:28:02;14.10;99.90
8152;DHT22;4117;53.622;9.958;2023-07-31T02:30:29;14.10;99.90
8152;DHT22;4117;53.622;9.958;2023-07-31T02:32:57;14.10;99.90
8152;DHT22;4117;53.622;9.958;2023-07-31T02:35:24;14.10;99.90
8152;DHT22;4117;53.622;9.958;2023-07-31T02:37:51;14.10;99.90
8152;DHT22;4117;53.622;9.958;2023-07-31T02:40:18;14.10;99.90
8152;DHT22;4117;53.622;9.958;2023-07-31T02:42:44;14.10;99.90
8152;DHT22;4117;53.622;9.958;2023-07-31T02:45:11;14.10;99.90
8152;DHT22;4117;53.622;9.958;2023-07-31T02:47:38;14.10;99.90
8152;DHT22;4117;53.622;9.958;2023-07-31T02:50:07;14.10;99.90
8152;DHT22;4117;53.622;9.958;2023-07-31T02:52:34;14.20;99.90
8152;DHT22;4117;53.622;9.958;2023-07-31T02:55:01;14.20;99.90
8152;DHT22;4117;53.622;9.958;2023-07-31T02:57:28;14.20;99.90
8152;DHT22;4117;53.622;9.958;2023-07-31T02:59:55;14.20;99.90
8152;DHT22;4117;53.622;9.958;2023-07-31T03:02:22;14.20;99.90
8152;DHT22;4117;53.622;9.958;2023-07-31T03:04:49;14.20;99.90
8152;DHT22;4117;53.622;9.958;2023-07-31T03:07:17;14.10;99.90
8152;DHT22;4117;53.622;9.958;2023-07-31T03:09:44;14.20;99.90
8152;DHT22;4117;53.622;9.958;2023-07-31T03:12:11;14.20;99.90
8152;DHT22;4117;53.622;9.958;2023-07-31T03:14:37;14.20;99.90
8152;DHT22;4117;53.622;9.958;2023-07-31T03:17:04;14.20;99.90
8152;DHT22;4117;53.622;9.958;2023-07-31T03:19:31;14.20;99.90
8152;DHT22;4117;53.622;9.958;2023-07-31T03:21:58;14.20;99.90
8152;DHT22;4117;53.622;9.958;2023-07-31T03:24:28;14.20;99.90
8152;DHT22;4117;53.622;9.958;2023-07-31T03:26:55;14.20;99.90
8152;DHT22;4117;53.622;9.958;2023-07-31T03:29:22;14.20;99.90
8152;DHT22;4117;53.622;9.958;2023-07-31T03:31:49;14.20;99.90
8152;DHT22;4117;53.622;9.958;2023-07-31T03:34:17;14.20;99.90
8152;DHT22;4117;53.622;9.958;2023-07-31T03:36:44;14.30;99.90
8152;DHT22;4117;53.622;9.958;2023-07-31T03:39:11;14.30;99.90
8152;DHT22;4117;53.622;9.958;2023-07-31T03:41:39;14.20;99.90
8152;DHT22;4117;53.622;9.958;2023-07-31T03:44:06;14.30;99.90
8152;DHT22;4117;53.622;9.958;2023-07-31T03:46:33;14.30;99.90
8152;DHT22;4117;53.622;9.958;2023-07-31T03:49:01;14.30;99.90
8152;DHT22;4117;53.622;9.958;2023-07-31T03:51:28;14.30;99.90
8152;DHT22;4117;53.622;9.958;2023-07-31T03:53:55;14.30;99.90
8152;DHT22;4117;53.622;9.958;2023-07-31T03:56:23;14.30;99.90
8152;DHT22;4117;53.622;9.958;2023-07-31T03:58:52;14.30;99.90
8152;DHT22;4117;53.622;9.958;2023-07-31T04:01:19;14.40;99.90
8152;DHT22;4117;53.622;9.958;2023-07-31T04:03:46;14.40;99.90
8152;DHT22;4117;53.622;9.958;2023-07-31T04:06:13;14.30;99.90
8152;DHT22;4117;53.622;9.958;2023-07-31T04:08:43;14.40;99.90
8152;DHT22;4117;53.622;9.958;2023-07-31T04:11:10;14.40;99.90
8152;DHT22;4117;53.622;9.958;2023-07-31T04:13:37;14.40;99.90
8152;DHT22;4117;53.622;9.958;2023-07-31T04:16:06;14.40;99.90
8152;DHT22;4117;53.622;9.958;2023-07-31T04:18:33;14.40;99.90
8152;DHT22;4117;53.622;9.958;2023-07-31T04:20:59;14.40;99.90
8152;DHT22;4117;53.622;9.958;2023-07-31T04:23:28;14.40;99.90
8152;DHT22;4117;53.622;9.958;2023-07-31T04:25:54;14.50;99.90
8152;DHT22;4117;53.622;9.958;2023-07-31T04:28:21;14.40;99.90
8152;DHT22;4117;53.622;9.958;2023-07-31T04:30:48;14.50;99.90
8152;DHT22;4117;53.622;9.958;2023-07-31T04:33:19;14.40;99.90
8152;DHT22;4117;53.622;9.958;2023-07-31T04:35:50;14.50;99.90
8152;DHT22;4117;53.622;9.958;2023-07-31T04:38:18;14.50;99.90
8152;DHT22;4117;53.622;9.958;2023-07-31T04:40:45;14.50;99.90
8152;DHT22;4117;53.622;9.958;2023-07-31T04:43:12;14.50;99.90
8152;DHT22;4117;53.622;9.958;2023-07-31T04:45:41;14.50;99.90
8152;DHT22;4117;53.622;9.958;2023-07-31T04:48:08;14.50;99.90
8152;DHT22;4117;53.622;9.958;2023-07-31T04:50:36;14.50;99.90
8152;DHT22;4117;53.622;9.958;2023-07-31T04:53:03;14.60;99.90
8152;DHT22;4117;53.622;9.958;2023-07-31T04:55:30;14.50;99.90
8152;DHT22;4117;53.622;9.958;2023-07-31T04:57:58;14.60;99.90
8152;DHT22;4117;53.622;9.958;2023-07-31T05:00:25;14.60;99.90
8152;DHT22;4117;53.622;9.958;2023-07-31T05:02:52;14.60;99.90
8152;DHT22;4117;53.622;9.958;2023-07-31T05:05:19;14.60;99.90
8152;DHT22;4117;53.622;9.958;2023-07-31T05:07:47;14.60;99.90
8152;DHT22;4117;53.622;9.958;2023-07-31T05:10:14;14.60;99.90
8152;DHT22;4117;53.622;9.958;2023-07-31T05:12:41;14.60;99.90
8152;DHT22;4117;53.622;9.958;2023-07-31T05:15:09;14.60;99.90
8152;DHT22;4117;53.622;9.958;2023-07-31T05:17:36;14.60;99.90
8152;DHT22;4117;53.622;9.958;2023-07-31T05:20:03;14.60;99.90
8152;DHT22;4117;53.622;9.958;2023-07-31T05:22:30;14.60;99.90
8152;DHT22;4117;53.622;9.958;2023-07-31T05:24:58;14.60;99.90
8152;DHT22;4117;53.622;9.958;2023-07-31T05:27:25;14.60;99.90
8152;DHT22;4117;53.622;9.958;2023-07-31T05:29:52;14.60;99.90
8152;DHT22;4117;53.622;9.958;2023-07-31T05:32:19;14.60;99.90
8152;DHT22;4117;53.622;9.958;2023-07-31T05:34:46;14.60;99.90
8152;DHT22;4117;53.622;9.958;2023-07-31T05:37:14;14.60;99.90
8152;DHT22;4117;53.622;9.958;2023-07-31T05:39:41;14.60;99.90
8152;DHT22;4117;53.622;9.958;2023-07-31T05:42:09;14.60;99.90
8152;DHT22;4117;53.622;9.958;2023-07-31T05:44:36;14.70;99.90
8152;DHT22;4117;53.622;9.958;2023-07-31T05:47:03;14.70;99.90
8152;DHT22;4117;53.622;9.958;2023-07-31T05:49:30;14.70;99.90
8152;DHT22;4117;53.622;9.958;2023-07-31T05:51:57;14.70;99.90
8152;DHT22;4117;53.622;9.958;2023-07-31T05:54:24;14.70;99.90
8152;DHT22;4117;53.622;9.958;2023-07-31T05:56:51;14.70;99.90
8152;DHT22;4117;53.622;9.958;2023-07-31T05:59:19;14.70;99.90
8152;DHT22;4117;53.622;9.958;2023-07-31T06:01:46;14.70;99.90
8152;DHT22;4117;53.622;9.958;2023-07-31T06:04:13;14.80;99.90
8152;DHT22;4117;53.622;9.958;2023-07-31T06:06:40;14.80;99.90
8152;DHT22;4117;53.622;9.958;2023-07-31T06:09:07;14.80;99.90
8152;DHT22;4117;53.622;9.958;2023-07-31T06:11:34;14.80;99.90
8152;DHT22;4117;53.622;9.958;2023-07-31T06:14:01;14.80;99.90
8152;DHT22;4117;53.622;9.958;2023-07-31T06:16:29;14.80;99.90
8152;DHT22;4117;53.622;9.958;2023-07-31T06:18:56;14.90;99.90
8152;DHT22;4117;53.622;9.958;2023-07-31T06:21:23;14.90;99.90
8152;DHT22;4117;53.622;9.958;2023-07-31T06:23:50;14.90;99.90
8152;DHT22;4117;53.622;9.958;2023-07-31T06:26:17;14.90;99.90
8152;DHT22;4117;53.622;9.958;2023-07-31T06:28:44;14.90;99.90
8152;DHT22;4117;53.622;9.958;2023-07-31T06:31:11;14.90;99.90
8152;DHT22;4117;53.622;9.958;2023-07-31T06:33:39;14.90;99.90
8152;DHT22;4117;53.622;9.958;2023-07-31T06:36:08;14.90;99.90
8152;DHT22;4117;53.622;9.958;2023-07-31T06:38:35;14.90;99.90
8152;DHT22;4117;53.622;9.958;2023-07-31T06:41:03;14.90;99.90
8152;DHT22;4117;53.622;9.958;2023-07-31T06:43:30;14.90;99.90
8152;DHT22;4117;53.622;9.958;2023-07-31T06:45:59;14.90;99.90
8152;DHT22;4117;53.622;9.958;2023-07-31T06:48:26;14.90;99.90
8152;DHT22;4117;53.622;9.958;2023-07-31T06:50:55;14.90;99.90
8152;DHT22;4117;53.622;9.958;2023-07-31T06:53:22;14.90;99.90
8152;DHT22;4117;53.622;9.958;2023-07-31T06:55:48;14.90;99.90
8152;DHT22;4117;53.622;9.958;2023-07-31T06:58:17;14.90;99.90
8152;DHT22;4117;53.622;9.958;2023-07-31T07:00:44;14.90;99.90
8152;DHT22;4117;53.622;9.958;2023-07-31T07:03:11;15.00;99.90
8152;DHT22;4117;53.622;9.958;2023-07-31T07:05:40;15.00;99.90
8152;DHT22;4117;53.622;9.958;2023-07-31T07:08:08;15.00;99.90
8152;DHT22;4117;53.622;9.958;2023-07-31T07:10:35;15.00;99.90
8152;DHT22;4117;53.622;9.958;2023-07-31T07:13:03;15.00;99.90
8152;DHT22;4117;53.622;9.958;2023-07-31T07:15:30;15.00;99.90
8152;DHT22;4117;53.622;9.958;2023-07-31T07:17:57;15.10;99.90
8152;DHT22;4117;53.622;9.958;2023-07-31T07:20:24;15.10;99.90
8152;DHT22;4117;53.622;9.958;2023-07-31T07:22:51;15.10;99.90
8152;DHT22;4117;53.622;9.958;2023-07-31T07:25:19;15.10;99.90
8152;DHT22;4117;53.622;9.958;2023-07-31T07:27:46;15.10;99.90
8152;DHT22;4117;53.622;9.958;2023-07-31T07:30:13;15.10;99.90
8152;DHT22;4117;53.622;9.958;2023-07-31T07:32:40;15.10;99.90
8152;DHT22;4117;53.622;9.958;2023-07-31T07:35:08;15.10;99.90
8152;DHT22;4117;53.622;9.958;2023-07-31T07:37:35;15.10;99.90
8152;DHT22;4117;53.622;9.958;2023-07-31T07:40:02;15.20;99.90
8152;DHT22;4117;53.622;9.958;2023-07-31T07:42:30;15.20;99.90
8152;DHT22;4117;53.622;9.958;2023-07-31T07:44:57;15.20;99.90
8152;DHT22;4117;53.622;9.958;2023-07-31T07:47:24;15.20;99.90
8152;DHT22;4117;53.622;9.958;2023-07-31T07:49:51;15.20;99.90
8152;DHT22;4117;53.622;9.958;2023-07-31T07:52:18;15.20;99.90
8152;DHT22;4117;53.622;9.958;2023-07-31T07:54:45;15.20;99.90
8152;DHT22;4117;53.622;9.958;2023-07-31T07:57:11;15.30;99.90
8152;DHT22;4117;53.622;9.958;2023-07-31T07:59:40;15.30;99.90
8152;DHT22;4117;53.622;9.958;2023-07-31T08:02:07;15.30;99.90
8152;DHT22;4117;53.622;9.958;2023-07-31T08:04:34;15.40;99.90
8152;DHT22;4117;53.622;9.958;2023-07-31T08:07:01;15.40;99.90
8152;DHT22;4117;53.622;9.958;2023-07-31T08:09:28;15.40;99.90
8152;DHT22;4117;53.622;9.958;2023-07-31T08:11:55;15.40;99.90
8152;DHT22;4117;53.622;9.958;2023-07-31T08:14:27;15.40;99.90
8152;DHT22;4117;53.622;9.958;2023-07-31T08:16:55;15.50;99.90
8152;DHT22;4117;53.622;9.958;2023-07-31T08:19:22;15.50;99.90
8152;DHT22;4117;53.622;9.958;2023-07-31T08:21:49;15.50;99.90
8152;DHT22;4117;53.622;9.958;2023-07-31T08:24:18;15.50;99.90
8152;DHT22;4117;53.622;9.958;2023-07-31T08:26:46;15.50;99.90
8152;DHT22;4117;53.622;9.958;2023-07-31T08:29:14;15.50;99.90
8152;DHT22;4117;53.622;9.958;2023-07-31T08:31:40;15.50;99.90
8152;DHT22;4117;53.622;9.958;2023-07-31T08:34:09;15.60;99.90
8152;DHT22;4117;53.622;9.958;2023-07-31T08:36:36;15.70;99.90
8152;DHT22;4117;53.622;9.958;2023-07-31T08:39:03;15.70;99.90
8152;DHT22;4117;53.622;9.958;2023-07-31T08:41:30;15.70;99.90
8152;DHT22;4117;53.622;9.958;2023-07-31T08:43:57;15.70;99.90
8152;DHT22;4117;53.622;9.958;2023-07-31T08:46:25;15.70;99.90
8152;DHT22;4117;53.622;9.958;2023-07-31T08:48:52;15.70;99.90
8152;DHT22;4117;53.622;9.958;2023-07-31T08:51:24;15.70;99.90
8152;DHT22;4117;53.622;9.958;2023-07-31T08:53:52;15.70;99.90
8152;DHT22;4117;53.622;9.958;2023-07-31T08:56:20;15.80;99.90
8152;DHT22;4117;53.622;9.958;2023-07-31T08:58:47;15.70;99.90
8152;DHT22;4117;53.622;9.958;2023-07-31T09:01:16;15.70;99.90
8152;DHT22;4117;53.622;9.958;2023-07-31T09:03:44;15.80;99.90
8152;DHT22;4117;53.622;9.958;2023-07-31T09:06:12;15.70;99.90
8152;DHT22;4117;53.622;9.958;2023-07-31T09:08:42;15.70;99.90
8152;DHT22;4117;53.622;9.958;2023-07-31T09:11:09;15.70;99.90
8152;DHT22;4117;53.622;9.958;2023-07-31T09:13:40;15.70;99.90
8152;DHT22;4117;53.622;9.958;2023-07-31T09:16:08;15.70;99.90
8152;DHT22;4117;53.622;9.958;2023-07-31T09:18:53;15.70;99.90
8152;DHT22;4117;53.622;9.958;2023-07-31T09:21:20;15.70;99.90
8152;DHT22;4117;53.622;9.958;2023-07-31T09:23:50;15.70;99.90
8152;DHT22;4117;53.622;9.958;2023-07-31T09:26:29;15.70;99.90
8152;DHT22;4117;53.622;9.958;2023-07-31T09:28:56;15.80;99.90
8152;DHT22;4117;53.622;9.958;2023-07-31T09:31:38;15.80;99.90
8152;DHT22;4117;53.622;9.958;2023-07-31T09:34:05;15.80;99.90
8152;DHT22;4117;53.622;9.958;2023-07-31T09:36:32;15.80;99.90
8152;DHT22;4117;53.622;9.958;2023-07-31T09:39:03;15.80;99.90
8152;DHT22;4117;53.622;9.958;2023-07-31T09:41:30;15.80;99.90
8152;DHT22;4117;53.622;9.958;2023-07-31T09:43:57;15.80;99.90
8152;DHT22;4117;53.622;9.958;2023-07-31T09:46:27;15.90;99.90
8152;DHT22;4117;53.622;9.958;2023-07-31T09:49:06;15.90;99.90
8152;DHT22;4117;53.622;9.958;2023-07-31T09:51:35;15.90;99.90
8152;DHT22;4117;53.622;9.958;2023-07-31T09:54:09;15.90;99.90
8152;DHT22;4117;53.622;9.958;2023-07-31T09:56:40;15.90;99.90
8152;DHT22;4117;53.622;9.958;2023-07-31T09:59:08;15.90;99.90
8152;DHT22;4117;53.622;9.958;2023-07-31T10:01:37;15.90;99.90
8152;DHT22;4117;53.622;9.958;2023-07-31T10:04:05;15.90;99.90
8152;DHT22;4117;53.622;9.958;2023-07-31T10:06:34;15.90;99.90
8152;DHT22;4117;53.622;9.958;2023-07-31T10:09:02;15.90;99.90
8152;DHT22;4117;53.622;9.958;2023-07-31T10:11:36;15.80;99.90
8152;DHT22;4117;53.622;9.958;2023-07-31T10:14:05;15.80;99.90
8152;DHT22;4117;53.622;9.958;2023-07-31T10:16:38;15.80;99.90
8152;DHT22;4117;53.622;9.958;2023-07-31T10:19:06;15.80;99.90
8152;DHT22;4117;53.622;9.958;2023-07-31T10:21:34;15.80;99.90
8152;DHT22;4117;53.622;9.958;2023-07-31T10:24:04;15.80;99.90
8152;DHT22;4117;53.622;9.958;2023-07-31T10:26:32;15.90;99.90
8152;DHT22;4117;53.622;9.958;2023-07-31T10:29:00;15.90;99.90
8152;DHT22;4117;53.622;9.958;2023-07-31T10:31:28;15.90;99.90
8152;DHT22;4117;53.622;9.958;2023-07-31T10:33:56;15.80;99.90
8152;DHT22;4117;53.622;9.958;2023-07-31T10:36:23;15.80;99.90
8152;DHT22;4117;53.622;9.958;2023-07-31T10:38:51;15.80;99.90
8152;DHT22;4117;53.622;9.958;2023-07-31T10:41:18;15.80;99.90
8152;DHT22;4117;53.622;9.958;2023-07-31T10:43:47;15.80;99.90
8152;DHT22;4117;53.622;9.958;2023-07-31T10:46:14;15.80;99.90
8152;DHT22;4117;53.622;9.958;2023-07-31T10:48:42;15.80;99.90
8152;DHT22;4117;53.622;9.958;2023-07-31T10:51:10;15.80;99.90
8152;DHT22;4117;53.622;9.958;2023-07-31T10:53:38;15.80;99.90
8152;DHT22;4117;53.622;9.958;2023-07-31T10:56:07;15.80;99.90
8152;DHT22;4117;53.622;9.958;2023-07-31T10:58:36;15.80;99.90
8152;DHT22;4117;53.622;9.958;2023-07-31T11:01:06;15.80;99.90
8152;DHT22;4117;53.622;9.958;2023-07-31T11:03:46;15.80;99.90
8152;DHT22;4117;53.622;9.958;2023-07-31T11:06:14;15.80;99.90
8152;DHT22;4117;53.622;9.958;2023-07-31T11:08:43;15.80;99.90
8152;DHT22;4117;53.622;9.958;2023-07-31T11:11:11;15.80;99.90
8152;DHT22;4117;53.622;9.958;2023-07-31T11:13:43;15.80;99.90
8152;DHT22;4117;53.622;9.958;2023-07-31T11:16:13;15.80;99.90
8152;DHT22;4117;53.622;9.958;2023-07-31T11:18:41;15.80;99.90
8152;DHT22;4117;53.622;9.958;2023-07-31T11:21:09;15.80;99.90
8152;DHT22;4117;53.622;9.958;2023-07-31T11:23:38;15.80;99.90
8152;DHT22;4117;53.622;9.958;2023-07-31T11:26:06;15.80;99.90
8152;DHT22;4117;53.622;9.958;2023-07-31T11:28:34;15.80;99.90
8152;DHT22;4117;53.622;9.958;2023-07-31T11:31:02;15.80;99.90
8152;DHT22;4117;53.622;9.958;2023-07-31T11:33:30;15.80;99.90
8152;DHT22;4117;53.622;9.958;2023-07-31T11:35:58;15.80;99.90
8152;DHT22;4117;53.622;9.958;2023-07-31T11:38:25;15.70;99.90
8152;DHT22;4117;53.622;9.958;2023-07-31T11:40:53;15.70;99.90
8152;DHT22;4117;53.622;9.958;2023-07-31T11:43:21;15.70;99.90
8152;DHT22;4117;53.622;9.958;2023-07-31T11:45:49;15.70;99.90
8152;DHT22;4117;53.622;9.958;2023-07-31T11:48:21;15.60;99.90
8152;DHT22;4117;53.622;9.958;2023-07-31T11:50:51;15.60;99.90
8152;DHT22;4117;53.622;9.958;2023-07-31T11:53:22;15.70;99.90
8152;DHT22;4117;53.622;9.958;2023-07-31T11:55:50;15.70;99.90
8152;DHT22;4117;53.622;9.958;2023-07-31T11:58:18;15.70;99.90
8152;DHT22;4117;53.622;9.958;2023-07-31T12:00:46;15.60;99.90
8152;DHT22;4117;53.622;9.958;2023-07-31T12:03:13;15.60;99.90
8152;DHT22;4117;53.622;9.958;2023-07-31T12:05:40;15.60;99.90
8152;DHT22;4117;53.622;9.958;2023-07-31T12:08:12;15.60;99.90
8152;DHT22;4117;53.622;9.958;2023-07-31T12:10:39;15.60;99.90
8152;DHT22;4117;53.622;9.958;2023-07-31T12:13:08;15.60;99.90
8152;DHT22;4117;53.622;9.958;2023-07-31T12:15:40;15.60;99.90
8152;DHT22;4117;53.622;9.958;2023-07-31T12:18:09;15.60;99.90
8152;DHT22;4117;53.622;9.958;2023-07-31T12:20:41;15.60;99.90
8152;DHT22;4117;53.622;9.958;2023-07-31T12:23:14;15.70;99.90
8152;DHT22;4117;53.622;9.958;2023-07-31T12:25:42;15.70;99.90
8152;DHT22;4117;53.622;9.958;2023-07-31T12:28:09;15.70;99.90
8152;DHT22;4117;53.622;9.958;2023-07-31T12:30:39;15.70;99.90
8152;DHT22;4117;53.622;9.958;2023-07-31T12:33:16;15.70;99.90
8152;DHT22;4117;53.622;9.958;2023-07-31T12:35:46;15.70;99.90
8152;DHT22;4117;53.622;9.958;2023-07-31T12:38:15;15.70;99.90
8152;DHT22;4117;53.622;9.958;2023-07-31T12:40:42;15.70;99.90
8152;DHT22;4117;53.622;9.958;2023-07-31T12:43:09;15.70;99.90
8152;DHT22;4117;53.622;9.958;2023-07-31T12:45:36;15.70;99.90
8152;DHT22;4117;53.622;9.958;2023-07-31T12:48:03;15.70;99.90
8152;DHT22;4117;53.622;9.958;2023-07-31T12:50:30;15.70;99.90
8152;DHT22;4117;53.622;9.958;2023-07-31T12:52:57;15.70;99.90
8152;DHT22;4117;53.622;9.958;2023-07-31T12:55:26;15.70;99.90
8152;DHT22;4117;53.622;9.958;2023-07-31T12:57:53;15.70;99.90
8152;DHT22;4117;53.622;9.958;2023-07-31T13:00:19;15.70;99.90
8152;DHT22;4117;53.622;9.958;2023-07-31T13:02:46;15.70;99.90
8152;DHT22;4117;53.622;9.958;2023-07-31T13:05:14;15.70;99.90
8152;DHT22;4117;53.622;9.958;2023-07-31T13:07:43;15.60;99.90
8152;DHT22;4117;53.622;9.958;2023-07-31T13:10:10;15.50;99.90
8152;DHT22;4117;53.622;9.958;2023-07-31T13:12:38;15.60;99.90
8152;DHT22;4117;53.622;9.958;2023-07-31T13:15:07;15.60;99.90
8152;DHT22;4117;53.622;9.958;2023-07-31T13:17:35;15.70;99.90
8152;DHT22;4117;53.622;9.958;2023-07-31T13:20:04;15.70;99.90
8152;DHT22;4117;53.622;9.958;2023-07-31T13:22:31;15.70;99.90
8152;DHT22;4117;53.622;9.958;2023-07-31T13:24:58;15.70;99.90
8152;DHT22;4117;53.622;9.958;2023-07-31T13:27:25;15.70;99.90
8152;DHT22;4117;53.622;9.958;2023-07-31T13:29:53;15.80;99.90
8152;DHT22;4117;53.622;9.958;2023-07-31T13:32:21;15.80;99.90
8152;DHT22;4117;53.622;9.958;2023-07-31T13:34:48;15.80;99.90
8152;DHT22;4117;53.622;9.958;2023-07-31T13:37:17;15.80;99.90
8152;DHT22;4117;53.622;9.958;2023-07-31T13:39:44;15.80;99.90
8152;DHT22;4117;53.622;9.958;2023-07-31T13:42:11;15.90;99.90
8152;DHT22;4117;53.622;9.958;2023-07-31T13:44:38;15.90;99.90
8152;DHT22;4117;53.622;9.958;2023-07-31T13:47:08;15.90;99.90
8152;DHT22;4117;53.622;9.958;2023-07-31T13:49:36;15.90;99.90
8152;DHT22;4117;53.622;9.958;2023-07-31T13:52:07;15.90;99.90
8152;DHT22;4117;53.622;9.958;2023-07-31T13:54:34;15.90;99.90
8152;DHT22;4117;53.622;9.958;2023-07-31T13:57:02;16.00;99.90
8152;DHT22;4117;53.622;9.958;2023-07-31T13:59:29;16.00;99.90
8152;DHT22;4117;53.622;9.958;2023-07-31T14:01:55;15.90;99.90
8152;DHT22;4117;53.622;9.958;2023-07-31T14:04:24;15.90;99.90
8152;DHT22;4117;53.622;9.958;2023-07-31T14:06:51;15.80;99.90
8152;DHT22;4117;53.622;9.958;2023-07-31T14:09:18;15.80;99.90
8152;DHT22;4117;53.622;9.958;2023-07-31T14:11:45;15.80;99.90
8152;DHT22;4117;53.622;9.958;2023-07-31T14:14:12;15.80;99.90
8152;DHT22;4117;53.622;9.958;2023-07-31T14:16:39;15.80;99.90
8152;DHT22;4117;53.622;9.958;2023-07-31T14:19:06;15.80;99.90
8152;DHT22;4117;53.622;9.958;2023-07-31T14:21:35;15.90;99.90
8152;DHT22;4117;53.622;9.958;2023-07-31T14:24:03;15.90;99.90
8152;DHT22;4117;53.622;9.958;2023-07-31T14:26:30;15.80;99.90
8152;DHT22;4117;53.622;9.958;2023-07-31T14:28:57;15.80;99.90
8152;DHT22;4117;53.622;9.958;2023-07-31T14:31:24;15.80;99.90
8152;DHT22;4117;53.622;9.958;2023-07-31T14:33:51;15.80;99.90
8152;DHT22;4117;53.622;9.958;2023-07-31T14:36:18;15.90;99.90
8152;DHT22;4117;53.622;9.958;2023-07-31T14:38:46;15.90;99.90
8152;DHT22;4117;53.622;9.958;2023-07-31T14:41:13;15.90;99.90
8152;DHT22;4117;53.622;9.958;2023-07-31T14:43:40;16.00;99.90
8152;DHT22;4117;53.622;9.958;2023-07-31T14:46:07;16.00;99.90
8152;DHT22;4117;53.622;9.958;2023-07-31T14:48:33;16.00;99.90
8152;DHT22;4117;53.622;9.958;2023-07-31T14:51:00;16.00;99.90
8152;DHT22;4117;53.622;9.958;2023-07-31T14:53:27;16.00;99.90
8152;DHT22;4117;53.622;9.958;2023-07-31T14:55:56;16.00;99.90
8152;DHT22;4117;53.622;9.958;2023-07-31T14:58:23;16.10;99.90
8152;DHT22;4117;53.622;9.958;2023-07-31T15:00:50;16.00;99.90
8152;DHT22;4117;53.622;9.958;2023-07-31T15:03:17;16.00;99.90
8152;DHT22;4117;53.622;9.958;2023-07-31T15:05:44;16.10;99.90
8152;DHT22;4117;53.622;9.958;2023-07-31T15:08:11;16.10;99.90
8152;DHT22;4117;53.622;9.958;2023-07-31T15:10:38;16.10;99.90
8152;DHT22;4117;53.622;9.958;2023-07-31T15:13:06;16.10;99.90
8152;DHT22;4117;53.622;9.958;2023-07-31T15:15:33;16.10;99.90
8152;DHT22;4117;53.622;9.958;2023-07-31T15:18:00;16.10;99.90
8152;DHT22;4117;53.622;9.958;2023-07-31T15:20:28;16.10;99.90
8152;DHT22;4117;53.622;9.958;2023-07-31T15:22:55;16.10;99.90
8152;DHT22;4117;53.622;9.958;2023-07-31T15:25:22;16.10;99.90
8152;DHT22;4117;53.622;9.958;2023-07-31T15:27:49;16.10;99.90
8152;DHT22;4117;53.622;9.958;2023-07-31T15:30:18;16.10;99.90
8152;DHT22;4117;53.622;9.958;2023-07-31T15:32:45;16.10;99.90
8152;DHT22;4117;53.622;9.958;2023-07-31T15:35:14;16.20;99.90
8152;DHT22;4117;53.622;9.958;2023-07-31T15:37:41;16.20;99.90
8152;DHT22;4117;53.622;9.958;2023-07-31T15:40:09;16.20;99.90
8152;DHT22;4117;53.622;9.958;2023-07-31T15:42:36;16.20;99.90
8152;DHT22;4117;53.622;9.958;2023-07-31T15:45:06;16.20;99.90
8152;DHT22;4117;53.622;9.958;2023-07-31T15:47:35;16.20;99.90
8152;DHT22;4117;53.622;9.958;2023-07-31T15:50:02;16.30;99.90
8152;DHT22;4117;53.622;9.958;2023-07-31T15:52:29;16.30;99.90
8152;DHT22;4117;53.622;9.958;2023-07-31T15:54:56;16.40;99.90
8152;DHT22;4117;53.622;9.958;2023-07-31T15:57:23;16.50;99.90
8152;DHT22;4117;53.622;9.958;2023-07-31T15:59:50;16.50;99.90
8152;DHT22;4117;53.622;9.958;2023-07-31T16:02:17;16.60;99.90
8152;DHT22;4117;53.622;9.958;2023-07-31T16:04:46;16.60;99.90
8152;DHT22;4117;53.622;9.958;2023-07-31T16:07:12;16.70;99.90